KHYR

Sawyer County Airport

Hayward, Wisconsin, USA
METAR KHYR 211953Z AUTO 00000KT 10SM OVC095 04/M02 A2995 RMK AO2 SLP157 T00391022
Observed Flight Rules
Jan-21 @ 19:53 UTC (30 minutes ago) Visual Flight Rules
Wind Visibility Clouds
Calm 10 miles
  • Overcast at 9,500' AGL
Temperatures Readings
Current 4°C / 39°F
Dewpoint -2°C / 28°F
Humidity 65%
Altimeter 29.95" Hg
Pressure 1015.7 hPa
Elevation 370
METAR KHYR 211953Z AUTO 00000KT 10SM OVC095 04/M02 A2995 RMK AO2 SLP157 T00391022
Observed Flight Rules
Jan-21 @ 19:53 UTC
(30 minutes ago)
VFR
Wind Visibility
Calm 10 miles
Clouds
  • Overcast at 9,500' AGL
Temperature Dewpoint
4°C / 39°F -2°C / 28°F
Humidity Altimeter Pressure
65% 29.95" Hg 1015.7 hPa